TAF Text Data
IDs:
Format:
Raw Decoded Include METAR

Data at: 1512 UTC 21 Apr 2021

TAF PGUA 211000Z 2110/2216 10010KT 9999 SCT015 QNH2982INS TX30/2202Z TN24/2119Z